createdAt,value
2023-05-10T00:00:33.464Z,6.85
2023-05-10T00:05:47.473Z,7.60
2023-05-10T00:10:50.666Z,7.57
2023-05-10T00:15:53.358Z,8.27
2023-05-10T00:20:56.027Z,8.57
2023-05-10T00:25:58.816Z,7.57
2023-05-10T00:31:01.412Z,7.70
2023-05-10T00:36:08.665Z,7.40
2023-05-10T00:41:11.189Z,7.50
2023-05-10T00:46:16.761Z,7.22
2023-05-10T00:51:22.004Z,7.53
2023-05-10T00:56:25.895Z,6.97
2023-05-10T01:01:30.026Z,7.55
2023-05-10T01:06:33.572Z,7.22
2023-05-10T01:11:38.167Z,7.05
2023-05-10T01:16:41.988Z,6.70
2023-05-10T01:22:04.686Z,7.38
2023-05-10T01:27:32.601Z,7.53
2023-05-10T01:32:56.543Z,7.70
2023-05-10T01:43:09.719Z,7.25
2023-05-10T01:48:15.416Z,6.93
2023-05-10T01:53:20.120Z,8.32
2023-05-10T01:58:29.188Z,7.30
2023-05-10T02:03:33.671Z,7.00
2023-05-10T02:08:37.817Z,7.93
2023-05-10T02:13:41.383Z,7.72
2023-05-10T02:18:45.288Z,8.10
2023-05-10T02:28:52.092Z,8.30
2023-05-10T02:33:58.483Z,8.73
2023-05-10T02:39:03.188Z,8.10
2023-05-10T02:44:09.085Z,8.70
2023-05-10T02:49:11.964Z,8.07
2023-05-10T02:54:20.709Z,8.33
2023-05-10T02:59:23.300Z,7.97
2023-05-10T03:04:26.130Z,8.30
2023-05-10T03:09:32.332Z,7.30
2023-05-10T03:14:47.059Z,8.20
2023-05-10T03:20:12.980Z,7.90
2023-05-10T03:25:18.020Z,8.32
2023-05-10T03:30:21.308Z,7.53
2023-05-10T03:35:24.856Z,8.73
2023-05-10T03:40:33.209Z,8.27
2023-05-10T03:45:36.291Z,8.75
2023-05-10T03:50:39.126Z,8.38
2023-05-10T03:55:41.733Z,8.43
2023-05-10T04:00:47.614Z,8.80
2023-05-10T04:06:04.443Z,7.68
2023-05-10T04:11:13.105Z,8.30
2023-05-10T04:16:15.785Z,8.52
2023-05-10T04:21:18.461Z,7.90
2023-05-10T04:26:21.425Z,8.35
2023-05-10T04:31:24.007Z,7.33
2023-05-10T04:36:27.317Z,7.90
2023-05-10T04:41:29.937Z,7.30
2023-05-10T04:46:32.554Z,7.85
2023-05-10T04:51:37.240Z,8.00
2023-05-10T04:56:39.838Z,7.85
2023-05-10T05:01:42.473Z,7.23
2023-05-10T05:06:45.089Z,6.83
2023-05-10T05:11:47.719Z,7.50
2023-05-10T05:16:50.575Z,6.70
2023-05-10T05:21:53.235Z,6.35
2023-05-10T05:26:55.797Z,7.30
2023-05-10T05:31:58.416Z,7.43
2023-05-10T05:37:00.961Z,7.95
2023-05-10T05:42:04.034Z,6.93
2023-05-10T05:47:06.899Z,7.30
2023-05-10T05:52:09.481Z,6.10
2023-05-10T05:57:12.194Z,6.50
2023-05-10T06:02:14.821Z,6.50
2023-05-10T06:07:17.919Z,6.30
2023-05-10T06:12:20.842Z,6.32
2023-05-10T06:17:23.515Z,6.18
2023-05-10T06:22:26.370Z,5.97
2023-05-10T06:27:28.927Z,5.82
2023-05-10T06:32:34.089Z,5.72
2023-05-10T06:37:36.836Z,5.05
2023-05-10T06:42:46.652Z,5.43
2023-05-10T06:47:49.667Z,5.25
2023-05-10T06:52:53.150Z,5.28
2023-05-10T06:57:56.553Z,5.10
2023-05-10T07:03:02.246Z,5.78
2023-05-10T07:08:05.017Z,4.70
2023-05-10T07:13:09.967Z,4.68
2023-05-10T07:18:15.219Z,5.13
2023-05-10T07:23:27.286Z,4.78
2023-05-10T07:28:30.153Z,4.90
2023-05-10T07:33:33.569Z,4.35
2023-05-10T07:38:38.955Z,4.72
2023-05-10T07:43:49.364Z,4.53
2023-05-10T07:48:53.432Z,4.53
2023-05-10T07:59:01.548Z,4.90
2023-05-10T08:04:04.785Z,4.70
2023-05-10T08:14:11.621Z,4.07
2023-05-10T08:19:20.355Z,4.10
2023-05-10T08:24:26.070Z,4.28
2023-05-10T08:29:32.757Z,4.43
2023-05-10T08:34:38.831Z,4.10
2023-05-10T08:39:45.732Z,3.75
2023-05-10T08:44:49.884Z,3.78
2023-05-10T08:50:00.395Z,4.35
2023-05-10T08:55:04.475Z,5.03
2023-05-10T09:00:13.410Z,4.30
2023-05-10T09:05:20.413Z,4.15
2023-05-10T09:10:27.198Z,3.40
2023-05-10T09:15:30.033Z,3.90
2023-05-10T09:20:32.949Z,3.30
2023-05-10T09:30:38.846Z,2.85
2023-05-10T09:40:55.749Z,2.60
2023-05-10T09:45:58.496Z,2.67
2023-05-10T09:51:02.404Z,3.50
2023-05-10T09:56:07.338Z,2.90
2023-05-10T10:01:16.420Z,3.17
2023-05-10T10:06:30.153Z,3.00
2023-05-10T10:11:41.743Z,3.22
2023-05-10T10:16:55.686Z,2.50
2023-05-10T10:22:07.542Z,2.83
2023-05-10T10:27:23.260Z,2.80
2023-05-10T10:33:10.180Z,3.10
2023-05-10T10:38:19.702Z,2.83
2023-05-10T10:48:29.398Z,2.72
2023-05-10T10:58:35.518Z,3.35
2023-05-10T11:03:38.618Z,3.42
2023-05-10T11:08:47.499Z,2.90
2023-05-10T11:13:53.813Z,2.70
2023-05-10T11:19:06.592Z,2.83
2023-05-10T11:24:15.628Z,3.20
2023-05-10T11:29:18.980Z,3.42
2023-05-10T11:34:26.787Z,3.08
2023-05-10T11:39:33.024Z,3.63
2023-05-10T11:44:37.346Z,3.10
2023-05-10T11:49:40.099Z,3.60
2023-05-10T11:54:55.134Z,3.10
2023-05-10T11:59:59.467Z,3.40
2023-05-10T12:05:09.495Z,3.00
2023-05-10T12:10:16.469Z,2.65
2023-05-10T12:15:24.287Z,2.55
2023-05-10T12:20:29.289Z,3.17
2023-05-10T12:25:36.363Z,3.03
2023-05-10T12:30:42.405Z,2.70
2023-05-10T12:35:47.210Z,3.20
2023-05-10T12:40:50.376Z,2.63
2023-05-10T12:45:55.998Z,2.60
2023-05-10T12:50:58.826Z,3.17
2023-05-10T13:01:04.380Z,2.92
2023-05-10T13:06:07.733Z,2.83
2023-05-10T13:11:11.663Z,3.00
2023-05-10T13:16:14.444Z,2.75
2023-05-10T13:21:17.931Z,3.72
2023-05-10T13:26:21.740Z,3.53
2023-05-10T13:31:25.754Z,2.92
2023-05-10T13:36:28.567Z,2.40
2023-05-10T13:41:31.473Z,2.53
2023-05-10T13:46:34.510Z,2.78
2023-05-10T13:51:38.454Z,3.10
2023-05-10T13:56:43.756Z,2.42
2023-05-10T14:01:46.520Z,2.40
2023-05-10T14:06:52.279Z,2.85
2023-05-10T14:11:55.177Z,2.55
2023-05-10T14:22:00.615Z,2.80
2023-05-10T14:32:09.187Z,2.40
2023-05-10T14:37:12.859Z,2.97
2023-05-10T14:42:15.492Z,2.65
2023-05-10T14:47:18.146Z,3.03
2023-05-10T14:52:22.099Z,2.70
2023-05-10T14:57:25.091Z,3.08
2023-05-10T15:07:33.511Z,2.97
2023-05-10T15:12:36.131Z,2.60
2023-05-10T15:17:38.747Z,3.00
2023-05-10T15:22:42.803Z,2.78
2023-05-10T15:27:46.743Z,3.00
2023-05-10T15:32:49.629Z,2.55
2023-05-10T15:42:55.457Z,3.00
2023-05-10T15:48:00.417Z,3.33
2023-05-10T15:53:03.347Z,2.88
2023-05-10T15:58:06.437Z,2.80
2023-05-10T16:03:09.447Z,2.85
2023-05-10T16:13:16.451Z,2.88
2023-05-10T16:18:19.788Z,3.28
2023-05-10T16:23:23.028Z,2.90
2023-05-10T16:28:25.899Z,2.45
2023-05-10T16:33:28.680Z,2.40
2023-05-10T16:38:31.903Z,2.70
2023-05-10T16:43:34.804Z,2.33
2023-05-10T16:48:37.696Z,2.25
2023-05-10T16:58:43.460Z,2.40
2023-05-10T17:03:49.914Z,2.50
2023-05-10T17:08:52.721Z,2.40
2023-05-10T17:13:56.406Z,2.80
2023-05-10T17:18:59.124Z,2.50
2023-05-10T17:24:01.802Z,2.10
2023-05-10T17:29:04.354Z,3.00
2023-05-10T17:34:07.018Z,2.40
2023-05-10T17:39:09.669Z,2.42
2023-05-10T17:44:13.669Z,2.80
2023-05-10T17:49:16.533Z,2.72
2023-05-10T17:54:20.933Z,2.80
2023-05-10T17:59:25.613Z,2.55
2023-05-10T18:04:28.641Z,2.78
2023-05-10T18:14:40.506Z,3.03
2023-05-10T18:19:44.423Z,2.90
2023-05-10T18:24:47.413Z,2.92
2023-05-10T18:34:54.996Z,3.40
2023-05-10T18:40:01.229Z,5.90
2023-05-10T18:45:04.477Z,4.43
2023-05-10T18:50:08.111Z,3.40
2023-05-10T18:55:11.010Z,8.63
2023-05-10T19:00:13.906Z,3.58
2023-05-10T19:05:20.025Z,3.10
2023-05-10T19:10:23.813Z,3.38
2023-05-10T19:15:28.996Z,3.20
2023-05-10T19:20:34.101Z,3.45
2023-05-10T19:25:37.153Z,4.10
2023-05-10T19:30:39.996Z,5.00
2023-05-10T19:35:43.736Z,4.80
2023-05-10T19:40:47.911Z,4.80
2023-05-10T19:45:50.920Z,4.95
2023-05-10T19:50:53.996Z,5.32
2023-05-10T19:55:56.651Z,4.07
2023-05-10T20:01:00.683Z,5.05
2023-05-10T20:06:04.247Z,11.77
2023-05-10T20:11:06.860Z,9.45
2023-05-10T20:16:09.545Z,7.32
2023-05-10T20:21:12.093Z,5.47
2023-05-10T20:26:15.207Z,5.07
2023-05-10T20:31:17.695Z,4.78
2023-05-10T20:36:20.501Z,4.30
2023-05-10T20:41:23.555Z,5.00
2023-05-10T20:46:27.334Z,5.47
2023-05-10T20:51:30.678Z,6.22
2023-05-10T21:01:36.915Z,7.50
2023-05-10T21:06:42.065Z,7.03
2023-05-10T21:11:44.735Z,8.45
2023-05-10T21:16:48.556Z,8.95
2023-05-10T21:21:51.453Z,7.55
2023-05-10T21:26:54.427Z,8.30
2023-05-10T21:31:57.120Z,9.25
2023-05-10T21:37:01.264Z,7.53
2023-05-10T21:42:06.456Z,8.90
2023-05-10T21:47:10.559Z,8.15
2023-05-10T21:52:13.356Z,7.55
2023-05-10T21:57:16.404Z,8.47
2023-05-10T22:02:19.202Z,7.60
2023-05-10T22:07:21.866Z,7.68
2023-05-10T22:12:24.449Z,7.53
2023-05-10T22:17:27.083Z,7.90
2023-05-10T22:22:30.685Z,8.03
2023-05-10T22:27:33.197Z,9.18
2023-05-10T22:32:35.734Z,8.67
2023-05-10T22:37:38.294Z,8.30
2023-05-10T22:42:41.138Z,9.37
2023-05-10T22:47:44.043Z,8.35
2023-05-10T22:52:46.879Z,8.90
2023-05-10T22:57:49.523Z,9.00
2023-05-10T23:02:52.412Z,8.63
2023-05-10T23:07:58.779Z,8.40
2023-05-10T23:13:01.431Z,8.55
2023-05-10T23:18:06.141Z,8.93
2023-05-10T23:23:10.200Z,9.05
2023-05-10T23:28:13.212Z,8.52
2023-05-10T23:33:15.868Z,8.57
2023-05-10T23:38:21.805Z,7.50
2023-05-10T23:43:26.609Z,7.88
2023-05-10T23:48:29.132Z,7.80
2023-05-10T23:53:31.744Z,8.00
2023-05-10T23:58:34.094Z,6.80
